Time;durP1;ratioP1;P1;durP2;ratioP2;P2;SDS_P1;SDS_P2;PMS_P1;PMS_P2;Temp;Humidity;BMP_temperature;BMP_pressure;BME280_temperature;BME280_humidity;BME280_pressure;Samples;Min_cycle;Max_cycle;Signal;HPM_P1;HPM_P2
2022/09/11 00:01:32;;;;;;;2.17;1.80;;;;;;;15.17;80.78;98174.45;1627764;87;25688;-57
2022/09/11 00:03:59;;;;;;;2.83;1.90;;;;;;;15.16;80.95;98176.20;1625474;87;26475;-59
2022/09/11 00:06:26;;;;;;;2.37;1.72;;;;;;;15.10;80.95;98174.29;1630146;87;25445;-58
2022/09/11 00:08:59;;;;;;;4.33;1.92;;;;;;;15.04;81.16;98176.52;1634145;87;27623;-58
2022/09/11 00:11:29;;;;;;;3.60;2.02;;;;;;;14.99;81.21;98173.20;1633877;87;25654;-58
2022/09/11 00:13:56;;;;;;;3.33;2.10;;;;;;;14.88;81.26;98161.92;1610214;87;25717;-58
2022/09/11 00:16:33;;;;;;;2.35;2.15;;;;;;;14.90;81.15;98176.14;1634021;87;26771;-58
2022/09/11 00:19:04;;;;;;;2.33;2.05;;;;;;;14.78;81.14;98166.80;1634209;87;25449;-58
2022/09/11 00:21:30;;;;;;;3.55;2.20;;;;;;;14.78;81.14;98166.80;1634190;87;28276;-58
2022/09/11 00:23:57;;;;;;;2.50;1.92;;;;;;;14.82;81.37;98173.78;1633982;87;25518;-57
2022/09/11 00:26:24;;;;;;;3.58;2.30;;;;;;;14.83;81.44;98179.54;1633796;87;25745;-58
2022/09/11 00:28:51;;;;;;;3.75;2.25;;;;;;;14.85;81.48;98173.07;1634064;87;25986;-57
2022/09/11 00:31:25;;;;;;;4.10;2.17;;;;;;;14.85;81.48;98173.07;1633850;87;25410;-58
2022/09/11 00:33:51;;;;;;;2.20;2.00;;;;;;;14.88;81.53;98175.12;1634162;87;28208;-57
2022/09/11 00:36:22;;;;;;;6.42;2.42;;;;;;;14.93;81.46;98167.97;1633954;87;25659;-58
2022/09/11 00:38:50;;;;;;;4.47;2.22;;;;;;;14.93;81.46;98167.97;1634220;87;25707;-57
2022/09/11 00:41:21;;;;;;;3.25;2.30;;;;;;;14.95;81.23;98168.19;1633980;87;26018;-57
2022/09/11 00:43:56;;;;;;;3.60;2.35;;;;;;;14.90;81.44;98155.45;1634079;87;25501;-58
2022/09/11 00:46:27;;;;;;;3.55;2.50;;;;;;;14.95;81.29;98170.94;1634113;87;28406;-58
2022/09/11 00:48:56;;;;;;;3.20;2.25;;;;;;;14.92;82.41;98172.46;1633377;87;26094;-57
2022/09/11 00:51:26;;;;;;;2.52;2.12;;;;;;;14.88;81.70;98182.61;1633883;87;25583;-58
2022/09/11 00:53:55;;;;;;;3.27;2.22;;;;;;;14.84;81.99;98173.42;1633289;87;26146;-57
2022/09/11 00:56:26;;;;;;;2.75;2.20;;;;;;;14.82;81.92;98166.10;1629632;88;25506;-61
2022/09/11 00:58:53;;;;;;;;;;;;;;;14.88;81.97;98163.30;1631729;88;27251;-60
2022/09/11 01:01:20;;;;;;;2.58;2.37;;;;;;;14.93;81.66;98162.45;1629378;88;25643;-57
2022/09/11 01:03:46;;;;;;;3.22;2.20;;;;;;;14.92;81.46;98159.48;1629467;88;25751;-58
2022/09/11 01:06:13;;;;;;;5.10;2.55;;;;;;;14.97;81.95;98155.63;1629313;87;28185;-58
2022/09/11 01:08:39;;;;;;;3.67;2.50;;;;;;;15.00;82.36;98163.20;1629401;88;25667;-58
2022/09/11 01:11:23;;;;;;;2.42;2.10;;;;;;;14.96;82.51;98168.40;1629517;88;27377;-58
2022/09/11 01:14:25;;;;;;;4.22;2.60;;;;;;;14.87;82.97;98167.20;1625510;87;25929;-60
2022/09/11 01:17:11;;;;;;;3.77;2.30;;;;;;;14.84;83.26;98170.09;1599679;89;25824;-62
2022/09/11 01:20:25;;;;;;;3.45;2.40;;;;;;;14.79;83.34;98165.64;1600148;89;26163;-64
2022/09/11 01:23:26;;;;;;;2.67;2.40;;;;;;;14.77;83.58;98163.77;1556850;92;25766;-61
2022/09/11 01:26:45;;;;;;;4.17;2.60;;;;;;;14.82;83.58;98158.61;1512724;94;27278;-61
2022/09/11 01:29:21;;;;;;;2.90;2.40;;;;;;;14.85;83.49;98160.66;1557612;92;25680;-59
2022/09/11 01:32:08;;;;;;;4.00;2.52;;;;;;;14.85;83.69;98164.02;1557735;92;25727;-60
2022/09/11 01:34:49;;;;;;;4.25;2.50;;;;;;;14.80;83.82;98167.23;1557731;92;26187;-59
2022/09/11 01:37:21;;;;;;;3.58;2.60;;;;;;;14.80;83.82;98167.23;1557452;92;25719;-59
2022/09/11 01:39:52;;;;;;;4.20;2.77;;;;;;;14.77;84.20;98159.64;1558081;92;27549;-60
2022/09/11 01:42:22;;;;;;;3.52;2.37;;;;;;;14.83;84.05;98174.02;1557870;92;25859;-59
2022/09/11 01:44:56;;;;;;;3.25;2.70;;;;;;;14.75;83.81;98150.94;1558318;92;25577;-61
2022/09/11 01:47:23;;;;;;;3.02;2.33;;;;;;;14.80;83.92;98163.70;1558061;92;26945;-59
2022/09/11 01:50:04;;;;;;;4.25;2.90;;;;;;;14.73;83.75;98151.05;1557855;92;25590;-59
2022/09/11 01:52:44;;;;;;;3.30;2.55;;;;;;;14.78;84.12;98168.72;1559448;90;27427;-59
2022/09/11 01:55:21;;;;;;;4.03;2.67;;;;;;;14.74;84.19;98165.86;1578245;90;25878;-59
2022/09/11 01:57:54;;;;;;;3.67;2.90;;;;;;;14.76;84.07;98159.99;1574711;91;25719;-60
2022/09/11 02:00:22;;;;;;;3.65;2.67;;;;;;;14.76;84.01;98158.05;1574760;91;26663;-59
2022/09/11 02:03:13;;;;;;;3.95;2.83;;;;;;;14.73;83.91;98152.42;1623262;88;25702;-60
2022/09/11 02:05:53;;;;;;;4.00;2.77;;;;;;;14.70;84.30;98160.84;1629964;88;27449;-59
2022/09/11 02:08:23;;;;;;;;;;;;;;;14.59;84.08;98168.04;1616594;88;25504;-59
2022/09/11 02:10:54;;;;;;;3.17;2.83;;;;;;;14.49;84.21;98158.31;1614177;88;25613;-59
2022/09/11 02:13:28;;;;;;;2.87;2.50;;;;;;;14.42;84.27;98147.31;1614119;88;26169;-59
2022/09/11 02:16:02;;;;;;;3.42;2.50;;;;;;;14.44;84.05;98145.59;1614289;88;25462;-58
2022/09/11 02:18:43;;;;;;;3.12;2.50;;;;;;;14.44;84.05;98145.59;1603069;88;27410;-59
2022/09/11 02:21:10;;;;;;;4.97;2.90;;;;;;;14.49;84.06;98156.37;1610478;88;26489;-58
2022/09/11 02:23:36;;;;;;;8.08;4.22;;;;;;;14.43;84.13;98146.15;1614103;88;25547;-59
2022/09/11 02:26:04;;;;;;;3.72;2.98;;;;;;;14.43;84.13;98146.15;1614157;88;26219;-59
2022/09/11 02:28:30;;;;;;;2.95;2.58;;;;;;;14.47;84.24;98152.34;1614098;88;25501;-59
2022/09/11 02:30:56;;;;;;;4.58;2.98;;;;;;;14.42;84.22;98149.26;1614161;88;28218;-60
2022/09/11 02:33:34;;;;;;;4.45;2.65;;;;;;;14.38;84.35;98142.86;1614015;88;25635;-60
2022/09/11 02:36:25;;;;;;;4.95;3.10;;;;;;;14.27;84.41;98139.80;1613870;88;25682;-59
2022/09/11 02:39:42;;;;;;;3.90;2.85;;;;;;;14.27;84.41;98139.80;1613702;88;32647;-58
2022/09/11 02:42:38;;;;;;;8.70;3.35;;;;;;;14.17;84.49;98138.37;1614116;88;25510;-59
2022/09/11 02:45:21;;;;;;;3.83;3.15;;;;;;;14.22;84.71;98139.48;1613839;88;27438;-59
2022/09/11 02:47:56;;;;;;;3.52;2.80;;;;;;;14.22;84.71;98139.48;1613873;88;25460;-62
2022/09/11 02:50:33;;;;;;;6.10;2.80;;;;;;;14.25;84.92;98140.16;1614203;88;25466;-61
2022/09/11 02:53:13;;;;;;;5.53;3.08;;;;;;;14.29;85.09;98134.75;1614015;88;26731;-62
2022/09/11 02:56:06;;;;;;;3.33;2.70;;;;;;;14.31;85.07;98140.72;1612451;88;25446;-59
2022/09/11 02:58:50;;;;;;;4.45;2.85;;;;;;;14.28;85.01;98132.56;1611747;88;27438;-59
2022/09/11 03:01:17;;;;;;;3.25;2.70;;;;;;;14.17;85.06;98124.59;1611567;88;25503;-59
2022/09/11 03:03:45;;;;;;;3.75;3.10;;;;;;;14.17;85.06;98124.59;1611739;88;25700;-58
2022/09/11 03:06:21;;;;;;;4.83;3.50;;;;;;;14.23;85.18;98134.77;1611999;88;26049;-59
2022/09/11 03:08:47;;;;;;;5.12;3.05;;;;;;;14.23;85.36;98134.77;1611954;88;25462;-59
2022/09/11 03:11:14;;;;;;;5.50;3.05;;;;;;;14.24;85.46;98133.61;1612016;88;27453;-59
2022/09/11 03:13:41;;;;;;;4.50;2.95;;;;;;;14.22;85.46;98133.19;1611937;88;25686;-59
2022/09/11 03:16:07;;;;;;;3.72;2.70;;;;;;;14.25;85.48;98126.37;1611827;89;25515;-59
2022/09/11 03:18:33;;;;;;;5.55;3.27;;;;;;;14.24;85.34;98130.30;1611975;89;26897;-59
2022/09/11 03:21:00;;;;;;;3.50;2.80;;;;;;;14.26;85.37;98127.19;1612141;88;25471;-59
2022/09/11 03:23:28;;;;;;;4.15;3.27;;;;;;;14.27;85.52;98131.53;1612022;88;28250;-58
2022/09/11 03:25:54;;;;;;;3.95;2.40;;;;;;;14.26;85.51;98131.31;1611946;89;25668;-59
2022/09/11 03:28:22;;;;;;;4.87;2.98;;;;;;;14.32;85.62;98129.10;1611870;88;25510;-59
2022/09/11 03:30:51;;;;;;;4.03;2.65;;;;;;;14.30;85.50;98120.62;1611899;88;26081;-58
2022/09/11 03:33:18;;;;;;;2.77;2.55;;;;;;;14.40;85.58;98130.31;1611725;88;25510;-59
2022/09/11 03:35:44;;;;;;;3.77;2.50;;;;;;;14.40;85.58;98130.31;1611769;88;27561;-58
2022/09/11 03:38:11;;;;;;;3.30;2.47;;;;;;;14.43;85.57;98132.97;1611843;88;25728;-58
2022/09/11 03:40:38;;;;;;;2.92;2.40;;;;;;;14.42;85.54;98123.88;1611905;88;25739;-59
2022/09/11 03:43:04;;;;;;;2.80;2.50;;;;;;;14.43;85.60;98130.98;1595673;89;26145;-59
2022/09/11 03:45:31;;;;;;;3.55;2.25;;;;;;;14.47;85.59;98126.96;1611743;89;25466;-59
2022/09/11 03:48:01;;;;;;;3.30;2.67;;;;;;;14.47;85.59;98126.96;1612279;88;28069;-59
2022/09/11 03:50:32;;;;;;;3.23;2.33;;;;;;;14.51;85.56;98128.45;1612210;88;25825;-60
2022/09/11 03:53:00;;;;;;;3.47;2.90;;;;;;;14.55;85.65;98126.01;1611842;89;25681;-59
2022/09/11 03:55:27;;;;;;;2.77;2.52;;;;;;;14.55;85.65;98126.01;1611804;88;26071;-59
2022/09/11 03:57:54;;;;;;;4.53;2.90;;;;;;;14.54;85.47;98133.25;1611761;89;25496;-59
2022/09/11 04:00:21;;;;;;;3.00;2.75;;;;;;;14.54;85.28;98132.66;1611655;88;27438;-59
2022/09/11 04:02:48;;;;;;;4.90;3.00;;;;;;;14.48;85.42;98122.26;1611618;88;25482;-59
2022/09/11 04:05:15;;;;;;;4.45;3.45;;;;;;;14.52;85.78;98131.42;1611814;89;25452;-59
2022/09/11 04:07:41;;;;;;;4.28;3.25;;;;;;;14.57;85.49;98122.09;1611628;88;25893;-59
2022/09/11 04:10:08;;;;;;;5.95;3.40;;;;;;;14.57;85.49;98122.09;1608285;89;25634;-59
2022/09/11 04:12:34;;;;;;;5.42;3.40;;;;;;;14.55;85.64;98122.44;1611768;89;27638;-59
2022/09/11 04:15:01;;;;;;;4.58;3.02;;;;;;;14.56;85.65;98118.52;1611673;89;25709;-59
2022/09/11 04:17:29;;;;;;;4.37;2.80;;;;;;;14.57;85.79;98128.41;1612160;88;25483;-59
2022/09/11 04:19:56;;;;;;;4.25;2.90;;;;;;;14.58;86.02;98116.22;1612134;89;26016;-59
2022/09/11 04:22:23;;;;;;;6.17;2.65;;;;;;;14.58;86.02;98116.22;1611854;88;25661;-59
2022/09/11 04:24:49;;;;;;;4.33;3.00;;;;;;;14.63;86.40;98128.38;1611860;89;28363;-59
2022/09/11 04:27:17;;;;;;;4.65;2.72;;;;;;;14.65;86.09;98129.41;1611739;88;25451;-60
2022/09/11 04:29:44;;;;;;;4.12;3.00;;;;;;;14.62;86.35;98117.70;1611845;88;25658;-59
2022/09/11 04:32:11;;;;;;;5.45;2.90;;;;;;;14.73;86.36;98131.17;1611792;88;26902;-59
2022/09/11 04:34:37;;;;;;;4.80;3.25;;;;;;;14.76;86.26;98133.22;1611839;88;25595;-59
2022/09/11 04:37:03;;;;;;;6.95;3.27;;;;;;;14.76;86.39;98133.79;1611916;88;28430;-59
2022/09/11 04:39:29;;;;;;;3.40;3.10;;;;;;;14.77;86.47;98123.00;1611876;89;25617;-59
2022/09/11 04:41:56;;;;;;;4.80;3.10;;;;;;;14.77;86.44;98136.80;1611768;88;25448;-59
2022/09/11 04:44:25;;;;;;;3.40;3.00;;;;;;;14.77;86.75;98138.17;1611835;89;26110;-59
2022/09/11 04:46:51;;;;;;;3.95;3.15;;;;;;;14.75;86.80;98134.95;1611861;88;25460;-59
2022/09/11 04:49:17;;;;;;;4.05;3.10;;;;;;;14.77;87.03;98132.66;1612068;88;27443;-59
2022/09/11 04:51:44;;;;;;;5.80;3.50;;;;;;;14.81;86.83;98133.56;1611759;89;25841;-59
2022/09/11 04:54:14;;;;;;;5.62;3.70;;;;;;;14.83;87.25;98133.21;1611805;88;25495;-58
2022/09/11 04:56:40;;;;;;;5.03;3.80;;;;;;;14.85;87.12;98128.94;1611627;88;26800;-59
2022/09/11 04:59:19;;;;;;;4.50;3.47;;;;;;;14.90;86.90;98126.49;1611976;88;25692;-58
2022/09/11 05:01:45;;;;;;;5.40;3.52;;;;;;;14.94;86.82;98127.38;1611852;89;28286;-58
2022/09/11 05:04:13;;;;;;;6.20;4.00;;;;;;;14.97;86.58;98134.94;1611852;88;26014;-62
2022/09/11 05:06:41;;;;;;;6.22;3.75;;;;;;;15.07;86.52;98137.75;1611850;88;25724;-61
2022/09/11 05:09:09;;;;;;;6.22;3.42;;;;;;;15.07;86.52;98137.75;1611868;88;25946;-61
2022/09/11 05:11:41;;;;;;;5.67;3.75;;;;;;;15.08;86.71;98135.20;1611943;88;25662;-61
2022/09/11 05:14:05;;;;;;;5.05;3.95;;;;;;;15.10;86.31;98137.03;1611542;88;26735;-62
2022/09/11 05:16:33;;;;;;;9.55;3.95;;;;;;;15.10;86.31;98137.03;1611796;89;25676;-60
2022/09/11 05:19:02;;;;;;;4.42;3.30;;;;;;;15.10;86.74;98138.41;1611609;89;25656;-61
2022/09/11 05:21:30;;;;;;;6.37;4.08;;;;;;;15.07;86.89;98143.27;1611550;89;26959;-59
2022/09/11 05:24:00;;;;;;;5.12;3.50;;;;;;;15.10;86.70;98145.88;1611705;89;25656;-60
2022/09/11 05:26:30;;;;;;;4.08;3.52;;;;;;;15.14;86.90;98140.67;1608997;88;27559;-61
2022/09/11 05:29:00;;;;;;;4.60;3.58;;;;;;;15.16;86.88;98141.13;1611459;88;26041;-61
2022/09/11 05:31:27;;;;;;;3.30;3.00;;;;;;;15.19;86.82;98142.36;1611956;89;25760;-61
2022/09/11 05:33:55;;;;;;;4.53;3.00;;;;;;;15.18;86.51;98140.77;1611965;88;27227;-61
2022/09/11 05:36:23;;;;;;;4.25;3.22;;;;;;;15.16;86.25;98143.89;1611827;89;26255;-61
2022/09/11 05:38:49;;;;;;;3.42;2.85;;;;;;;15.18;86.24;98140.77;1611598;88;29513;-59
2022/09/11 05:41:16;;;;;;;3.15;2.85;;;;;;;15.15;86.40;98133.20;1611461;89;25672;-61
2022/09/11 05:43:42;;;;;;;3.02;2.60;;;;;;;15.21;86.09;98143.39;1611707;88;25666;-61
2022/09/11 05:46:13;;;;;;;4.83;2.80;;;;;;;15.22;86.28;98133.94;1609360;88;26317;-59
2022/09/11 05:48:40;;;;;;;3.33;2.35;;;;;;;15.22;86.28;98133.94;1605993;89;25643;-58
2022/09/11 05:51:17;;;;;;;5.20;2.98;;;;;;;15.32;86.43;98147.22;1605736;88;27397;-59
2022/09/11 05:53:45;;;;;;;3.45;2.17;;;;;;;15.41;86.20;98152.54;1605448;89;25909;-59
2022/09/11 05:56:21;;;;;;;3.50;2.50;;;;;;;15.43;85.72;98144.11;1605674;88;25627;-59
2022/09/11 05:58:50;;;;;;;2.67;2.40;;;;;;;15.49;85.93;98146.01;1604882;89;26055;-59
2022/09/11 06:01:21;;;;;;;3.00;2.60;;;;;;;15.57;86.14;98145.59;1605498;88;25647;-61
2022/09/11 06:03:48;;;;;;;;;;;;;;;15.62;85.81;98154.18;1607234;89;27457;-59
2022/09/11 06:06:16;;;;;;;3.08;2.25;;;;;;;15.70;85.66;98153.19;1572922;91;25709;-59
2022/09/11 06:08:43;;;;;;;3.70;2.02;;;;;;;15.71;85.09;98150.64;1618884;88;25464;-59
2022/09/11 06:11:11;;;;;;;3.00;2.35;;;;;;;15.68;84.71;98150.79;1618692;88;26370;-59
2022/09/11 06:13:41;;;;;;;5.08;2.27;;;;;;;15.73;84.97;98154.42;1618858;88;25456;-60
2022/09/11 06:16:17;;;;;;;2.00;1.80;;;;;;;15.76;85.27;98160.03;1618795;88;27374;-58
2022/09/11 06:18:44;;;;;;;2.55;2.10;;;;;;;15.78;84.73;98156.91;1618024;88;25730;-58
2022/09/11 06:21:13;;;;;;;2.55;2.00;;;;;;;15.80;85.29;98159.52;1618671;88;25451;-58
2022/09/11 06:23:39;;;;;;;3.45;1.57;;;;;;;15.84;84.32;98151.89;1618793;88;26037;-58
2022/09/11 06:26:12;;;;;;;1.85;1.40;;;;;;;15.80;84.51;98159.52;1618664;88;25508;-59
2022/09/11 06:28:39;;;;;;;2.40;1.35;;;;;;;15.81;84.73;98153.43;1618542;88;28406;-58
2022/09/11 06:31:11;;;;;;;2.25;1.60;;;;;;;15.83;85.00;98151.69;1618707;88;25852;-61
2022/09/11 06:33:39;;;;;;;2.47;1.62;;;;;;;15.87;85.23;98151.98;1615199;88;25872;-64
2022/09/11 06:36:09;;;;;;;2.12;1.60;;;;;;;15.92;85.56;98153.06;1618820;88;26186;-61
2022/09/11 06:38:37;;;;;;;2.65;1.60;;;;;;;15.99;86.26;98157.98;1619084;88;25674;-61
2022/09/11 06:41:06;;;;;;;2.37;1.70;;;;;;;16.06;85.62;98161.45;1618886;88;27660;-61
2022/09/11 06:43:33;;;;;;;1.62;1.50;;;;;;;16.06;85.27;98165.60;1618884;88;25641;-61
2022/09/11 06:46:11;;;;;;;2.22;1.62;;;;;;;16.05;85.84;98164.02;1618953;88;25648;-60
2022/09/11 06:48:43;;;;;;;3.58;1.70;;;;;;;16.01;85.86;98172.81;1618998;88;26735;-60
2022/09/11 06:51:12;;;;;;;3.15;1.80;;;;;;;15.89;85.24;98168.98;1618872;87;25691;-61
2022/09/11 06:53:40;;;;;;;2.33;2.10;;;;;;;15.78;85.04;98174.88;1618811;88;27411;-60
2022/09/11 06:56:10;;;;;;;3.12;2.10;;;;;;;15.69;85.32;98179.22;1619690;88;25499;-60
2022/09/11 06:58:38;;;;;;;2.62;2.12;;;;;;;15.61;84.89;98182.40;1622852;88;35564;-62
2022/09/11 07:01:07;;;;;;;2.47;2.17;;;;;;;15.53;85.43;98175.09;1622530;87;25507;-61
2022/09/11 07:03:33;;;;;;;3.65;2.80;;;;;;;15.48;85.89;98173.41;1622827;88;25661;-61
2022/09/11 07:06:00;;;;;;;2.85;2.52;;;;;;;15.51;86.21;98164.98;1622608;88;27425;-61
2022/09/11 07:08:27;;;;;;;3.90;2.62;;;;;;;15.53;86.18;98171.77;1622756;88;25654;-61
2022/09/11 07:10:54;;;;;;;3.20;2.12;;;;;;;15.55;86.34;98173.56;1622822;88;25522;-62
2022/09/11 07:13:23;;;;;;;2.30;1.98;;;;;;;15.60;85.92;98175.84;1622637;88;25618;-60
2022/09/11 07:15:51;;;;;;;3.22;2.20;;;;;;;15.63;86.37;98172.37;1622553;87;25741;-60
2022/09/11 07:18:17;;;;;;;2.72;2.20;;;;;;;15.67;86.66;98177.39;1621996;88;27476;-60
2022/09/11 07:20:43;;;;;;;2.20;2.00;;;;;;;15.64;86.48;98172.02;1622798;88;25644;-61
2022/09/11 07:23:09;;;;;;;3.72;2.60;;;;;;;15.71;86.58;98176.88;1622859;88;25521;-60
2022/09/11 07:25:39;;;;;;;3.50;2.37;;;;;;;15.69;87.06;98173.70;1622825;88;26157;-60
2022/09/11 07:28:05;;;;;;;4.00;2.60;;;;;;;15.78;87.13;98176.25;1622661;88;25442;-60
2022/09/11 07:30:32;;;;;;;2.80;2.50;;;;;;;15.90;86.67;98176.70;1622835;88;27384;-60
2022/09/11 07:32:58;;;;;;;3.65;2.30;;;;;;;15.97;86.39;98176.09;1622607;88;25640;-61
2022/09/11 07:35:24;;;;;;;3.02;2.30;;;;;;;16.05;85.98;98186.13;1622619;88;25470;-60
2022/09/11 07:37:51;;;;;;;4.80;2.10;;;;;;;16.04;85.37;98180.39;1622796;88;26791;-61
2022/09/11 07:40:18;;;;;;;3.58;2.60;;;;;;;15.97;84.96;98172.73;1622673;88;25442;-61
2022/09/11 07:42:43;;;;;;;2.70;2.50;;;;;;;15.88;85.26;98175.68;1623026;88;27557;-60
2022/09/11 07:45:10;;;;;;;3.50;2.55;;;;;;;15.84;85.46;98181.72;1622839;88;25584;-60
2022/09/11 07:47:37;;;;;;;2.80;2.33;;;;;;;15.77;85.59;98175.44;1622818;88;25624;-60
2022/09/11 07:50:05;;;;;;;4.40;2.67;;;;;;;15.77;86.09;98183.73;1622735;88;26061;-63
2022/09/11 07:52:31;;;;;;;4.05;2.60;;;;;;;15.81;86.44;98184.59;1622880;88;25688;-63
2022/09/11 07:54:59;;;;;;;3.15;2.50;;;;;;;15.84;86.55;98175.38;1623075;88;27545;-63
2022/09/11 07:57:26;;;;;;;2.40;2.20;;;;;;;15.89;87.17;98181.41;1620064;88;25853;-62
2022/09/11 07:59:52;;;;;;;3.42;2.02;;;;;;;15.99;86.80;98181.47;1618783;88;25496;-64
2022/09/11 08:02:18;;;;;;;3.75;2.20;;;;;;;16.12;86.35;98184.88;1618410;88;26048;-62
2022/09/11 08:04:44;;;;;;;2.50;2.30;;;;;;;16.16;85.69;98178.87;1614868;88;25586;-64
2022/09/11 08:07:10;;;;;;;2.58;2.37;;;;;;;16.14;85.13;98178.42;1618730;88;27397;-63
2022/09/11 08:09:36;;;;;;;3.45;2.50;;;;;;;16.14;85.72;98186.72;1618728;88;25760;-63
2022/09/11 08:12:04;;;;;;;3.40;2.67;;;;;;;16.16;85.71;98183.02;1618392;88;25686;-63
2022/09/11 08:14:30;;;;;;;4.83;2.45;;;;;;;16.24;86.17;98187.30;1618652;88;25987;-64
2022/09/11 08:16:56;;;;;;;3.58;2.62;;;;;;;16.28;85.56;98190.93;1618714;88;25653;-64
2022/09/11 08:19:23;;;;;;;3.58;2.67;;;;;;;16.32;84.81;98189.03;1618719;88;28392;-64
2022/09/11 08:21:51;;;;;;;6.70;3.40;;;;;;;16.40;85.65;98185.83;1618559;88;25785;-64
2022/09/11 08:24:21;;;;;;;2.83;2.50;;;;;;;16.56;85.63;98192.67;1618792;88;25498;-63
2022/09/11 08:26:47;;;;;;;4.10;2.98;;;;;;;16.62;84.60;98193.17;1618448;88;26099;-63
2022/09/11 08:29:14;;;;;;;4.12;2.87;;;;;;;16.62;84.57;98198.12;1618496;88;25689;-63
2022/09/11 08:31:39;;;;;;;3.45;2.77;;;;;;;16.64;84.53;98195.78;1618856;88;27548;-59
2022/09/11 08:34:05;;;;;;;2.92;2.62;;;;;;;16.68;84.17;98204.97;1618604;88;25444;-59
2022/09/11 08:36:31;;;;;;;3.55;2.77;;;;;;;16.78;84.54;98205.53;1618742;88;25514;-59
2022/09/11 08:39:01;;;;;;;2.90;2.70;;;;;;;16.89;84.03;98204.33;1618624;88;26936;-59
2022/09/11 08:41:48;;;;;;;2.90;2.60;;;;;;;16.92;83.64;98205.78;1618552;87;25486;-59
2022/09/11 08:44:27;;;;;;;3.02;2.83;;;;;;;17.08;83.68;98208.25;1618468;88;27608;-59
2022/09/11 08:47:03;;;;;;;4.72;2.65;;;;;;;17.17;83.46;98203.27;1618565;88;25677;-62
2022/09/11 08:49:40;;;;;;;2.60;2.22;;;;;;;17.30;83.11;98204.67;1617078;88;25644;-62
2022/09/11 08:52:12;;;;;;;3.08;2.17;;;;;;;17.38;81.51;98204.78;1615921;88;26201;-61
2022/09/11 08:54:41;;;;;;;3.05;2.10;;;;;;;17.43;81.79;98204.48;1618409;88;25427;-62
2022/09/11 08:57:22;;;;;;;2.20;2.00;;;;;;;17.53;81.82;98207.99;1618619;88;27404;-61
2022/09/11 09:00:18;;;;;;;2.47;1.82;;;;;;;17.63;81.07;98205.77;1598819;89;25869;-58
2022/09/11 09:03:21;;;;;;;2.90;1.98;;;;;;;17.71;80.58;98205.29;1594606;89;25935;-57
2022/09/11 09:06:15;;;;;;;1.70;1.42;;;;;;;17.80;79.61;98206.62;1598362;89;26174;-58
2022/09/11 09:09:03;;;;;;;2.17;1.60;;;;;;;17.85;78.21;98209.67;1599028;89;25581;-57
2022/09/11 09:11:44;;;;;;;2.15;1.52;;;;;;;17.80;78.69;98214.14;1598377;89;27428;-57
2022/09/11 09:14:49;;;;;;;1.70;1.50;;;;;;;17.70;78.87;98213.39;1597651;89;25711;-60
2022/09/11 09:17:20;;;;;;;1.42;1.32;;;;;;;17.72;77.56;98215.19;1598975;89;25732;-60
2022/09/11 09:20:13;;;;;;;3.80;2.27;;;;;;;17.59;77.78;98209.88;1598202;89;26058;-60
2022/09/11 09:23:02;;;;;;;2.75;1.70;;;;;;;17.49;79.50;98215.45;1598678;89;25547;-59
2022/09/11 09:25:32;;;;;;;1.75;1.60;;;;;;;17.49;80.67;98216.03;1598380;89;27460;-58
2022/09/11 09:28:10;;;;;;;2.20;1.85;;;;;;;17.57;80.22;98210.83;1598684;89;25466;-58
2022/09/11 09:30:47;;;;;;;2.58;1.72;;;;;;;17.65;79.32;98218.06;1598699;89;25731;-59
2022/09/11 09:33:26;;;;;;;2.60;2.00;;;;;;;17.74;79.42;98217.02;1598353;89;26064;-59
2022/09/11 09:35:53;;;;;;;3.55;2.20;;;;;;;17.85;78.67;98212.44;1598430;89;25731;-58
2022/09/11 09:38:24;;;;;;;2.17;1.92;;;;;;;17.89;78.12;98213.86;1616634;88;28022;-58
2022/09/11 09:41:05;;;;;;;3.35;1.40;;;;;;;17.93;79.08;98212.73;1618272;88;25674;-58
2022/09/11 09:43:52;;;;;;;1.98;1.35;;;;;;;18.10;77.80;98209.20;1618632;88;25759;-58
2022/09/11 09:46:30;;;;;;;1.85;1.42;;;;;;;18.20;76.12;98209.17;1618595;88;26035;-58
2022/09/11 09:48:56;;;;;;;1.60;1.37;;;;;;;18.28;75.92;98218.37;1618474;88;25680;-58
2022/09/11 09:51:22;;;;;;;3.45;1.67;;;;;;;18.34;76.36;98208.55;1618607;88;27383;-59
2022/09/11 09:53:59;;;;;;;1.52;1.42;;;;;;;18.44;76.21;98211.23;1618311;88;25533;-59
2022/09/11 09:56:27;;;;;;;2.40;1.60;;;;;;;18.61;77.41;98213.20;1618431;88;25455;-58
2022/09/11 09:59:17;;;;;;;1.50;1.40;;;;;;;18.91;74.75;98210.34;1617399;88;26083;-60
2022/09/11 10:01:50;;;;;;;2.05;1.60;;;;;;;19.26;74.06;98205.53;1617834;88;25460;-59
2022/09/11 10:04:29;;;;;;;2.30;1.65;;;;;;;19.61;71.50;98207.61;1618747;88;27460;-59
2022/09/11 10:07:19;;;;;;;3.75;1.50;;;;;;;19.80;71.49;98212.09;1618264;88;25552;-59
2022/09/11 10:09:50;;;;;;;1.82;1.42;;;;;;;19.86;70.48;98208.34;1618458;88;25676;-59
2022/09/11 10:12:23;;;;;;;2.52;1.72;;;;;;;19.92;69.40;98205.41;1619008;88;26259;-59
2022/09/11 10:14:59;;;;;;;2.62;1.70;;;;;;;19.92;70.54;98207.41;1618637;88;25693;-59
2022/09/11 10:17:34;;;;;;;2.12;1.92;;;;;;;19.97;68.44;98204.85;1618698;88;27449;-59
2022/09/11 10:20:21;;;;;;;2.37;1.80;;;;;;;19.96;69.62;98204.05;1618564;88;25947;-59
2022/09/11 10:22:50;;;;;;;2.37;2.17;;;;;;;19.96;69.07;98204.05;1618601;88;25507;-59
2022/09/11 10:25:25;;;;;;;2.62;2.00;;;;;;;19.96;69.36;98199.06;1618591;88;26096;-59
2022/09/11 10:28:01;;;;;;;2.35;2.15;;;;;;;19.92;68.89;98204.02;1618715;88;25451;-59
2022/09/11 10:30:36;;;;;;;2.47;2.27;;;;;;;19.72;68.79;98207.69;1618437;88;27535;-59
2022/09/11 10:33:27;;;;;;;2.50;2.30;;;;;;;19.45;69.14;98211.26;1618337;88;25701;-58
2022/09/11 10:35:55;;;;;;;2.50;2.30;;;;;;;19.22;69.98;98211.66;1618809;88;25688;-59
2022/09/11 10:38:46;;;;;;;3.37;2.10;;;;;;;19.12;70.40;98209.59;1619133;88;26213;-59
2022/09/11 10:41:20;;;;;;;4.67;2.27;;;;;;;18.98;70.73;98212.41;1618453;88;25673;-60
2022/09/11 10:43:55;;;;;;;2.45;2.00;;;;;;;18.95;71.08;98204.84;1618038;88;27477;-59
2022/09/11 10:46:37;;;;;;;2.62;2.42;;;;;;;19.08;71.07;98208.73;1618749;88;25682;-60
2022/09/11 10:49:20;;;;;;;2.55;2.15;;;;;;;19.30;70.55;98205.57;1618217;88;25678;-61
2022/09/11 10:52:09;;;;;;;2.90;2.60;;;;;;;19.62;70.48;98202.83;1618454;88;26034;-62
2022/09/11 10:54:59;;;;;;;3.45;2.45;;;;;;;19.74;67.82;98196.95;1618971;88;25511;-62
2022/09/11 10:57:40;;;;;;;3.37;2.50;;;;;;;20.04;68.72;98195.17;1618784;88;27402;-62
2022/09/11 11:00:23;;;;;;;2.80;2.52;;;;;;;20.25;68.31;98202.02;1615105;88;26680;-62
2022/09/11 11:03:07;;;;;;;3.33;2.58;;;;;;;20.47;67.29;98194.57;1618426;88;25769;-62
2022/09/11 11:05:53;;;;;;;3.00;2.70;;;;;;;20.73;67.21;98191.27;1618377;88;26188;-62
2022/09/11 11:08:53;;;;;;;3.05;2.75;;;;;;;20.96;65.31;98196.30;1618852;88;25439;-62
2022/09/11 11:11:48;;;;;;;3.77;2.70;;;;;;;21.21;64.79;98196.30;1618344;88;26802;-62
2022/09/11 11:14:47;;;;;;;2.85;2.60;;;;;;;21.39;64.66;98208.06;1618363;88;25479;-62
2022/09/11 11:17:27;;;;;;;3.35;2.60;;;;;;;21.69;64.07;98203.46;1548139;92;25558;-61
2022/09/11 11:20:15;;;;;;;2.87;2.60;;;;;;;21.92;63.02;98205.05;1548630;91;25536;-62
2022/09/11 11:22:58;;;;;;;10.55;7.08;;;;;;;21.93;62.17;98206.62;1547648;91;25767;-62
2022/09/11 11:25:45;;;;;;;30.57;16.25;;;;;;;21.92;59.92;98212.61;1548843;92;27400;-62
2022/09/11 11:28:20;;;;;;;21.35;14.05;;;;;;;22.05;59.94;98211.59;1548016;92;25550;-62
2022/09/11 11:31:16;;;;;;;129.07;85.50;;;;;;;22.23;61.22;98209.33;1547921;92;25529;-63
2022/09/11 11:34:19;;;;;;;7.78;6.92;;;;;;;22.40;61.80;98210.47;1548454;92;26028;-61
2022/09/11 11:36:51;;;;;;;8.85;7.15;;;;;;;22.63;60.67;98202.20;1547577;92;25899;-62
2022/09/11 11:39:28;;;;;;;2.52;2.33;;;;;;;22.83;58.96;98199.70;1548593;92;27473;-60
2022/09/11 11:42:12;;;;;;;3.00;2.70;;;;;;;22.76;59.09;98200.53;1546068;92;25850;-61
2022/09/11 11:44:50;;;;;;;6.62;5.62;;;;;;;22.66;58.49;98197.20;1548437;92;25653;-63
2022/09/11 11:47:24;;;;;;;28.47;25.82;;;;;;;22.35;58.39;98200.52;1554683;88;27306;-62
2022/09/11 11:50:10;;;;;;;6.97;6.37;;;;;;;22.17;60.28;98195.00;1618569;87;25625;-60
2022/09/11 11:52:59;;;;;;;5.25;4.70;;;;;;;22.00;61.00;98199.44;1584939;90;27518;-60
2022/09/11 11:55:50;;;;;;;9.98;9.00;;;;;;;21.75;60.56;98204.44;1593342;89;25927;-60
2022/09/11 11:58:33;;;;;;;;;;;;;;;21.60;61.37;98206.45;1582500;89;25505;-62
2022/09/11 12:01:03;;;;;;;3.50;3.20;;;;;;;21.65;61.38;98204.05;1593231;90;26057;-62
2022/09/11 12:03:44;;;;;;;23.67;21.37;;;;;;;21.80;60.63;98202.67;1593391;90;25682;-62